sensor_id;sensor_type;location;lat;lon;timestamp;P1;durP1;ratioP1;P2;durP2;ratioP2
18720;SDS011;9489;50.948;3.114;2024-02-14T00:01:34;7.15;;;6.43;;
18720;SDS011;9489;50.948;3.114;2024-02-14T00:04:02;7.25;;;6.65;;
18720;SDS011;9489;50.948;3.114;2024-02-14T00:06:29;7.05;;;6.45;;
18720;SDS011;9489;50.948;3.114;2024-02-14T00:08:59;6.93;;;6.32;;
18720;SDS011;9489;50.948;3.114;2024-02-14T00:11:25;7.65;;;6.93;;
18720;SDS011;9489;50.948;3.114;2024-02-14T00:13:51;7.25;;;6.65;;
18720;SDS011;9489;50.948;3.114;2024-02-14T00:16:16;7.63;;;6.93;;
18720;SDS011;9489;50.948;3.114;2024-02-14T00:18:42;7.70;;;6.95;;
18720;SDS011;9489;50.948;3.114;2024-02-14T00:21:08;7.60;;;6.82;;
18720;SDS011;9489;50.948;3.114;2024-02-14T00:23:33;6.35;;;5.75;;
18720;SDS011;9489;50.948;3.114;2024-02-14T00:25:59;6.60;;;6.10;;
18720;SDS011;9489;50.948;3.114;2024-02-14T00:28:24;6.70;;;6.10;;
18720;SDS011;9489;50.948;3.114;2024-02-14T00:30:52;6.60;;;6.10;;
18720;SDS011;9489;50.948;3.114;2024-02-14T00:33:17;6.88;;;6.32;;
18720;SDS011;9489;50.948;3.114;2024-02-14T00:35:45;6.70;;;6.10;;
18720;SDS011;9489;50.948;3.114;2024-02-14T00:38:11;6.65;;;5.72;;
18720;SDS011;9489;50.948;3.114;2024-02-14T00:40:36;7.47;;;6.88;;
18720;SDS011;9489;50.948;3.114;2024-02-14T00:43:02;6.97;;;6.25;;
18720;SDS011;9489;50.948;3.114;2024-02-14T00:45:28;6.82;;;6.22;;
18720;SDS011;9489;50.948;3.114;2024-02-14T00:47:53;6.72;;;6.03;;
18720;SDS011;9489;50.948;3.114;2024-02-14T00:50:20;5.97;;;5.38;;
18720;SDS011;9489;50.948;3.114;2024-02-14T00:52:45;8.88;;;6.57;;
18720;SDS011;9489;50.948;3.114;2024-02-14T00:55:11;8.90;;;6.32;;
18720;SDS011;9489;50.948;3.114;2024-02-14T00:57:37;7.18;;;6.32;;
18720;SDS011;9489;50.948;3.114;2024-02-14T01:00:03;6.63;;;6.13;;
18720;SDS011;9489;50.948;3.114;2024-02-14T01:02:31;6.38;;;5.78;;
18720;SDS011;9489;50.948;3.114;2024-02-14T01:04:57;6.90;;;6.30;;
18720;SDS011;9489;50.948;3.114;2024-02-14T01:07:22;7.50;;;6.85;;
18720;SDS011;9489;50.948;3.114;2024-02-14T01:09:48;7.93;;;6.45;;
18720;SDS011;9489;50.948;3.114;2024-02-14T01:12:15;7.28;;;6.57;;
18720;SDS011;9489;50.948;3.114;2024-02-14T01:14:41;6.68;;;6.07;;
18720;SDS011;9489;50.948;3.114;2024-02-14T01:17:07;6.90;;;6.10;;
18720;SDS011;9489;50.948;3.114;2024-02-14T01:19:33;6.95;;;6.28;;
18720;SDS011;9489;50.948;3.114;2024-02-14T01:21:59;6.65;;;6.15;;
18720;SDS011;9489;50.948;3.114;2024-02-14T01:24:24;6.82;;;6.00;;
18720;SDS011;9489;50.948;3.114;2024-02-14T01:26:52;7.07;;;6.38;;
18720;SDS011;9489;50.948;3.114;2024-02-14T01:29:20;6.30;;;5.80;;
18720;SDS011;9489;50.948;3.114;2024-02-14T01:31:46;7.45;;;6.55;;
18720;SDS011;9489;50.948;3.114;2024-02-14T01:34:11;7.22;;;6.65;;
18720;SDS011;9489;50.948;3.114;2024-02-14T01:36:37;7.18;;;6.47;;
18720;SDS011;9489;50.948;3.114;2024-02-14T01:39:04;6.72;;;6.18;;
18720;SDS011;9489;50.948;3.114;2024-02-14T01:41:35;7.13;;;6.05;;
18720;SDS011;9489;50.948;3.114;2024-02-14T01:44:02;7.30;;;6.70;;
18720;SDS011;9489;50.948;3.114;2024-02-14T01:46:27;6.60;;;6.03;;
18720;SDS011;9489;50.948;3.114;2024-02-14T01:48:53;7.65;;;6.93;;
18720;SDS011;9489;50.948;3.114;2024-02-14T01:51:19;8.35;;;6.65;;
18720;SDS011;9489;50.948;3.114;2024-02-14T01:53:49;7.57;;;6.88;;
18720;SDS011;9489;50.948;3.114;2024-02-14T01:56:15;7.90;;;7.07;;
18720;SDS011;9489;50.948;3.114;2024-02-14T01:58:42;7.45;;;6.75;;
18720;SDS011;9489;50.948;3.114;2024-02-14T02:01:08;7.25;;;6.65;;
18720;SDS011;9489;50.948;3.114;2024-02-14T02:03:35;8.05;;;7.35;;
18720;SDS011;9489;50.948;3.114;2024-02-14T02:06:02;7.47;;;6.72;;
18720;SDS011;9489;50.948;3.114;2024-02-14T02:08:31;7.47;;;6.78;;
18720;SDS011;9489;50.948;3.114;2024-02-14T02:10:57;7.45;;;6.72;;
18720;SDS011;9489;50.948;3.114;2024-02-14T02:13:23;7.30;;;6.60;;
18720;SDS011;9489;50.948;3.114;2024-02-14T02:15:51;7.28;;;6.55;;
18720;SDS011;9489;50.948;3.114;2024-02-14T02:18:18;8.57;;;6.57;;
18720;SDS011;9489;50.948;3.114;2024-02-14T02:20:44;7.57;;;6.70;;
18720;SDS011;9489;50.948;3.114;2024-02-14T02:23:13;7.47;;;6.78;;
18720;SDS011;9489;50.948;3.114;2024-02-14T02:25:42;7.80;;;6.97;;
18720;SDS011;9489;50.948;3.114;2024-02-14T02:28:08;8.15;;;7.30;;
18720;SDS011;9489;50.948;3.114;2024-02-14T02:30:34;7.10;;;6.43;;
18720;SDS011;9489;50.948;3.114;2024-02-14T02:33:01;7.88;;;6.80;;
18720;SDS011;9489;50.948;3.114;2024-02-14T02:35:27;8.63;;;6.68;;
18720;SDS011;9489;50.948;3.114;2024-02-14T02:37:53;7.50;;;6.80;;
18720;SDS011;9489;50.948;3.114;2024-02-14T02:40:19;7.53;;;6.93;;
18720;SDS011;9489;50.948;3.114;2024-02-14T02:42:46;7.82;;;7.03;;
18720;SDS011;9489;50.948;3.114;2024-02-14T02:45:12;8.00;;;6.57;;
18720;SDS011;9489;50.948;3.114;2024-02-14T02:47:38;8.43;;;7.00;;
18720;SDS011;9489;50.948;3.114;2024-02-14T02:50:05;6.60;;;6.00;;
18720;SDS011;9489;50.948;3.114;2024-02-14T02:52:31;6.65;;;6.05;;
18720;SDS011;9489;50.948;3.114;2024-02-14T02:54:57;6.90;;;6.30;;
18720;SDS011;9489;50.948;3.114;2024-02-14T02:57:22;7.25;;;6.22;;
18720;SDS011;9489;50.948;3.114;2024-02-14T02:59:48;6.13;;;5.63;;
18720;SDS011;9489;50.948;3.114;2024-02-14T03:02:14;7.18;;;6.38;;
18720;SDS011;9489;50.948;3.114;2024-02-14T03:04:40;7.05;;;6.38;;
18720;SDS011;9489;50.948;3.114;2024-02-14T03:07:07;7.40;;;6.70;;
18720;SDS011;9489;50.948;3.114;2024-02-14T03:09:34;8.32;;;6.63;;
18720;SDS011;9489;50.948;3.114;2024-02-14T03:12:00;7.82;;;6.70;;
18720;SDS011;9489;50.948;3.114;2024-02-14T03:14:28;8.80;;;6.63;;
18720;SDS011;9489;50.948;3.114;2024-02-14T03:17:00;7.47;;;6.78;;
18720;SDS011;9489;50.948;3.114;2024-02-14T03:19:27;8.25;;;6.80;;
18720;SDS011;9489;50.948;3.114;2024-02-14T03:21:53;7.82;;;7.10;;
18720;SDS011;9489;50.948;3.114;2024-02-14T03:24:19;9.52;;;7.30;;
18720;SDS011;9489;50.948;3.114;2024-02-14T03:26:45;9.20;;;7.15;;
18720;SDS011;9489;50.948;3.114;2024-02-14T03:29:11;7.63;;;6.97;;
18720;SDS011;9489;50.948;3.114;2024-02-14T03:31:37;7.60;;;7.00;;
18720;SDS011;9489;50.948;3.114;2024-02-14T03:34:03;9.32;;;7.05;;
18720;SDS011;9489;50.948;3.114;2024-02-14T03:36:30;7.70;;;7.03;;
18720;SDS011;9489;50.948;3.114;2024-02-14T03:38:57;10.75;;;7.93;;
18720;SDS011;9489;50.948;3.114;2024-02-14T03:41:23;8.40;;;7.57;;
18720;SDS011;9489;50.948;3.114;2024-02-14T03:43:49;8.70;;;7.38;;
18720;SDS011;9489;50.948;3.114;2024-02-14T03:46:15;8.20;;;7.50;;
18720;SDS011;9489;50.948;3.114;2024-02-14T03:48:44;8.38;;;6.95;;
18720;SDS011;9489;50.948;3.114;2024-02-14T03:51:09;8.35;;;7.10;;
18720;SDS011;9489;50.948;3.114;2024-02-14T03:53:36;8.75;;;7.20;;
18720;SDS011;9489;50.948;3.114;2024-02-14T03:56:02;9.55;;;6.70;;
18720;SDS011;9489;50.948;3.114;2024-02-14T03:58:28;8.55;;;7.65;;
18720;SDS011;9489;50.948;3.114;2024-02-14T04:00:54;8.90;;;7.28;;
18720;SDS011;9489;50.948;3.114;2024-02-14T04:03:20;8.02;;;7.22;;
18720;SDS011;9489;50.948;3.114;2024-02-14T04:05:45;8.57;;;7.15;;
18720;SDS011;9489;50.948;3.114;2024-02-14T04:08:12;8.98;;;7.97;;
18720;SDS011;9489;50.948;3.114;2024-02-14T04:10:38;8.40;;;6.55;;
18720;SDS011;9489;50.948;3.114;2024-02-14T04:13:04;8.32;;;7.53;;
18720;SDS011;9489;50.948;3.114;2024-02-14T04:15:30;7.28;;;6.68;;
18720;SDS011;9489;50.948;3.114;2024-02-14T04:17:56;9.63;;;7.43;;
18720;SDS011;9489;50.948;3.114;2024-02-14T04:20:23;9.13;;;7.60;;
18720;SDS011;9489;50.948;3.114;2024-02-14T04:22:49;8.13;;;7.25;;
18720;SDS011;9489;50.948;3.114;2024-02-14T04:25:14;8.90;;;6.78;;
18720;SDS011;9489;50.948;3.114;2024-02-14T04:27:40;8.18;;;7.22;;
18720;SDS011;9489;50.948;3.114;2024-02-14T04:30:06;8.18;;;7.35;;
18720;SDS011;9489;50.948;3.114;2024-02-14T04:32:32;7.50;;;6.90;;
18720;SDS011;9489;50.948;3.114;2024-02-14T04:34:58;9.80;;;7.22;;
18720;SDS011;9489;50.948;3.114;2024-02-14T04:37:24;9.52;;;7.18;;
18720;SDS011;9489;50.948;3.114;2024-02-14T04:39:49;8.88;;;6.30;;
18720;SDS011;9489;50.948;3.114;2024-02-14T04:42:15;8.25;;;7.32;;
18720;SDS011;9489;50.948;3.114;2024-02-14T04:44:41;8.50;;;7.07;;
18720;SDS011;9489;50.948;3.114;2024-02-14T04:47:06;10.32;;;6.95;;
18720;SDS011;9489;50.948;3.114;2024-02-14T04:49:34;6.93;;;6.20;;
18720;SDS011;9489;50.948;3.114;2024-02-14T04:52:00;9.25;;;6.88;;
18720;SDS011;9489;50.948;3.114;2024-02-14T04:54:26;8.63;;;6.82;;
18720;SDS011;9489;50.948;3.114;2024-02-14T04:56:52;8.52;;;6.53;;
18720;SDS011;9489;50.948;3.114;2024-02-14T04:59:18;10.18;;;6.70;;
18720;SDS011;9489;50.948;3.114;2024-02-14T05:01:44;9.65;;;6.22;;
18720;SDS011;9489;50.948;3.114;2024-02-14T05:04:11;6.78;;;5.70;;
18720;SDS011;9489;50.948;3.114;2024-02-14T05:06:38;7.40;;;5.72;;
18720;SDS011;9489;50.948;3.114;2024-02-14T05:09:04;11.07;;;5.93;;
18720;SDS011;9489;50.948;3.114;2024-02-14T05:11:30;7.70;;;5.70;;
18720;SDS011;9489;50.948;3.114;2024-02-14T05:13:56;7.45;;;5.53;;
18720;SDS011;9489;50.948;3.114;2024-02-14T05:16:22;6.10;;;5.03;;
18720;SDS011;9489;50.948;3.114;2024-02-14T05:18:48;8.20;;;5.57;;
18720;SDS011;9489;50.948;3.114;2024-02-14T05:21:14;5.85;;;5.10;;
18720;SDS011;9489;50.948;3.114;2024-02-14T05:23:40;7.10;;;5.25;;
18720;SDS011;9489;50.948;3.114;2024-02-14T05:26:05;8.05;;;6.00;;
18720;SDS011;9489;50.948;3.114;2024-02-14T05:28:31;6.57;;;5.45;;
18720;SDS011;9489;50.948;3.114;2024-02-14T05:30:58;9.35;;;5.90;;
18720;SDS011;9489;50.948;3.114;2024-02-14T05:33:24;8.77;;;6.25;;
18720;SDS011;9489;50.948;3.114;2024-02-14T05:35:51;10.32;;;5.88;;
18720;SDS011;9489;50.948;3.114;2024-02-14T05:38:17;13.45;;;6.13;;
18720;SDS011;9489;50.948;3.114;2024-02-14T05:40:46;10.73;;;6.10;;
18720;SDS011;9489;50.948;3.114;2024-02-14T05:43:12;6.72;;;5.70;;
18720;SDS011;9489;50.948;3.114;2024-02-14T05:45:38;9.15;;;6.05;;
18720;SDS011;9489;50.948;3.114;2024-02-14T05:48:04;8.85;;;5.47;;
18720;SDS011;9489;50.948;3.114;2024-02-14T05:50:30;8.23;;;5.47;;
18720;SDS011;9489;50.948;3.114;2024-02-14T05:52:56;6.53;;;5.30;;
18720;SDS011;9489;50.948;3.114;2024-02-14T05:55:24;6.28;;;5.18;;
18720;SDS011;9489;50.948;3.114;2024-02-14T05:57:50;10.98;;;6.30;;
18720;SDS011;9489;50.948;3.114;2024-02-14T06:00:19;7.07;;;5.28;;
18720;SDS011;9489;50.948;3.114;2024-02-14T06:02:46;9.93;;;5.97;;
18720;SDS011;9489;50.948;3.114;2024-02-14T06:05:12;7.82;;;5.45;;
18720;SDS011;9489;50.948;3.114;2024-02-14T06:07:38;10.48;;;5.53;;
18720;SDS011;9489;50.948;3.114;2024-02-14T06:10:05;9.85;;;5.38;;
18720;SDS011;9489;50.948;3.114;2024-02-14T06:12:32;8.82;;;6.15;;
18720;SDS011;9489;50.948;3.114;2024-02-14T06:14:58;7.25;;;6.15;;
18720;SDS011;9489;50.948;3.114;2024-02-14T06:17:23;9.55;;;6.70;;
18720;SDS011;9489;50.948;3.114;2024-02-14T06:19:51;6.90;;;5.75;;
18720;SDS011;9489;50.948;3.114;2024-02-14T06:22:17;12.48;;;6.32;;
18720;SDS011;9489;50.948;3.114;2024-02-14T06:24:43;8.93;;;5.82;;
18720;SDS011;9489;50.948;3.114;2024-02-14T06:27:08;8.63;;;5.95;;
18720;SDS011;9489;50.948;3.114;2024-02-14T06:29:34;9.10;;;5.60;;
18720;SDS011;9489;50.948;3.114;2024-02-14T06:32:00;8.73;;;6.75;;
18720;SDS011;9489;50.948;3.114;2024-02-14T06:34:25;9.00;;;6.00;;
18720;SDS011;9489;50.948;3.114;2024-02-14T06:36:53;8.02;;;6.65;;
18720;SDS011;9489;50.948;3.114;2024-02-14T06:39:19;7.38;;;6.68;;
18720;SDS011;9489;50.948;3.114;2024-02-14T06:41:45;9.20;;;7.22;;
18720;SDS011;9489;50.948;3.114;2024-02-14T06:44:12;8.65;;;6.20;;
18720;SDS011;9489;50.948;3.114;2024-02-14T06:46:38;6.93;;;6.25;;
18720;SDS011;9489;50.948;3.114;2024-02-14T06:49:04;13.13;;;6.85;;
18720;SDS011;9489;50.948;3.114;2024-02-14T06:51:29;10.27;;;6.68;;
18720;SDS011;9489;50.948;3.114;2024-02-14T06:53:55;9.73;;;6.95;;
18720;SDS011;9489;50.948;3.114;2024-02-14T06:56:21;8.15;;;7.05;;
18720;SDS011;9489;50.948;3.114;2024-02-14T06:58:47;9.57;;;6.50;;
18720;SDS011;9489;50.948;3.114;2024-02-14T07:01:18;9.40;;;7.30;;
18720;SDS011;9489;50.948;3.114;2024-02-14T07:03:47;10.30;;;7.32;;
18720;SDS011;9489;50.948;3.114;2024-02-14T07:06:13;11.00;;;7.82;;
18720;SDS011;9489;50.948;3.114;2024-02-14T07:08:42;12.90;;;7.85;;
18720;SDS011;9489;50.948;3.114;2024-02-14T07:11:08;12.95;;;8.13;;
18720;SDS011;9489;50.948;3.114;2024-02-14T07:13:33;8.80;;;7.32;;
18720;SDS011;9489;50.948;3.114;2024-02-14T07:15:59;10.98;;;7.65;;
18720;SDS011;9489;50.948;3.114;2024-02-14T07:18:25;11.43;;;7.93;;
18720;SDS011;9489;50.948;3.114;2024-02-14T07:20:51;12.10;;;8.60;;
18720;SDS011;9489;50.948;3.114;2024-02-14T07:23:18;11.88;;;8.80;;
18720;SDS011;9489;50.948;3.114;2024-02-14T07:25:44;12.38;;;9.50;;
18720;SDS011;9489;50.948;3.114;2024-02-14T07:28:10;10.68;;;8.82;;
18720;SDS011;9489;50.948;3.114;2024-02-14T07:30:36;11.93;;;8.88;;
18720;SDS011;9489;50.948;3.114;2024-02-14T07:33:01;11.45;;;9.63;;
18720;SDS011;9489;50.948;3.114;2024-02-14T07:35:27;11.77;;;9.35;;
18720;SDS011;9489;50.948;3.114;2024-02-14T07:37:54;12.55;;;9.43;;
18720;SDS011;9489;50.948;3.114;2024-02-14T07:40:20;13.20;;;9.85;;
18720;SDS011;9489;50.948;3.114;2024-02-14T07:42:47;10.38;;;9.35;;
18720;SDS011;9489;50.948;3.114;2024-02-14T07:45:12;13.75;;;10.45;;
18720;SDS011;9489;50.948;3.114;2024-02-14T07:47:38;12.95;;;9.93;;
18720;SDS011;9489;50.948;3.114;2024-02-14T07:50:05;12.13;;;10.50;;
18720;SDS011;9489;50.948;3.114;2024-02-14T07:52:34;13.35;;;10.38;;
18720;SDS011;9489;50.948;3.114;2024-02-14T07:55:01;13.98;;;9.88;;
18720;SDS011;9489;50.948;3.114;2024-02-14T07:57:27;15.23;;;11.13;;
18720;SDS011;9489;50.948;3.114;2024-02-14T07:59:53;16.33;;;10.55;;
18720;SDS011;9489;50.948;3.114;2024-02-14T08:02:19;14.52;;;10.90;;
18720;SDS011;9489;50.948;3.114;2024-02-14T08:04:45;11.93;;;9.68;;
18720;SDS011;9489;50.948;3.114;2024-02-14T08:07:10;17.60;;;10.75;;
18720;SDS011;9489;50.948;3.114;2024-02-14T08:09:36;11.27;;;9.75;;
18720;SDS011;9489;50.948;3.114;2024-02-14T08:12:04;11.80;;;9.88;;
18720;SDS011;9489;50.948;3.114;2024-02-14T08:14:30;13.43;;;11.32;;
18720;SDS011;9489;50.948;3.114;2024-02-14T08:16:56;12.85;;;10.65;;
18720;SDS011;9489;50.948;3.114;2024-02-14T08:19:22;12.90;;;10.02;;
18720;SDS011;9489;50.948;3.114;2024-02-14T08:21:48;15.10;;;10.25;;
18720;SDS011;9489;50.948;3.114;2024-02-14T08:24:13;13.00;;;9.88;;
18720;SDS011;9489;50.948;3.114;2024-02-14T08:26:39;13.93;;;8.90;;
18720;SDS011;9489;50.948;3.114;2024-02-14T08:29:05;12.18;;;9.88;;
18720;SDS011;9489;50.948;3.114;2024-02-14T08:31:30;11.98;;;9.73;;
18720;SDS011;9489;50.948;3.114;2024-02-14T08:33:57;12.45;;;9.32;;
18720;SDS011;9489;50.948;3.114;2024-02-14T08:36:23;12.55;;;9.43;;
18720;SDS011;9489;50.948;3.114;2024-02-14T08:38:49;13.88;;;10.25;;
18720;SDS011;9489;50.948;3.114;2024-02-14T08:41:15;12.68;;;9.25;;
18720;SDS011;9489;50.948;3.114;2024-02-14T08:43:40;10.10;;;9.10;;
18720;SDS011;9489;50.948;3.114;2024-02-14T08:46:09;10.50;;;9.23;;
18720;SDS011;9489;50.948;3.114;2024-02-14T08:48:36;11.35;;;10.07;;
18720;SDS011;9489;50.948;3.114;2024-02-14T08:51:07;11.52;;;9.57;;
18720;SDS011;9489;50.948;3.114;2024-02-14T08:53:34;9.45;;;8.55;;
18720;SDS011;9489;50.948;3.114;2024-02-14T08:56:00;11.65;;;9.73;;
18720;SDS011;9489;50.948;3.114;2024-02-14T08:58:26;10.25;;;9.15;;
18720;SDS011;9489;50.948;3.114;2024-02-14T09:00:52;10.70;;;9.15;;
18720;SDS011;9489;50.948;3.114;2024-02-14T09:03:18;11.95;;;9.80;;
18720;SDS011;9489;50.948;3.114;2024-02-14T09:05:44;9.82;;;8.82;;
18720;SDS011;9489;50.948;3.114;2024-02-14T09:08:12;10.20;;;9.30;;
18720;SDS011;9489;50.948;3.114;2024-02-14T09:10:38;11.55;;;10.18;;
18720;SDS011;9489;50.948;3.114;2024-02-14T09:13:03;11.18;;;9.30;;
18720;SDS011;9489;50.948;3.114;2024-02-14T09:15:29;10.02;;;8.82;;
18720;SDS011;9489;50.948;3.114;2024-02-14T09:17:56;9.90;;;9.10;;
18720;SDS011;9489;50.948;3.114;2024-02-14T09:20:22;10.93;;;9.43;;
18720;SDS011;9489;50.948;3.114;2024-02-14T09:22:48;10.25;;;9.23;;
18720;SDS011;9489;50.948;3.114;2024-02-14T09:25:13;10.05;;;8.13;;
18720;SDS011;9489;50.948;3.114;2024-02-14T09:27:39;8.82;;;8.07;;
18720;SDS011;9489;50.948;3.114;2024-02-14T09:30:06;9.73;;;8.85;;
18720;SDS011;9489;50.948;3.114;2024-02-14T09:32:32;9.55;;;8.68;;
18720;SDS011;9489;50.948;3.114;2024-02-14T09:35:01;9.60;;;8.32;;
18720;SDS011;9489;50.948;3.114;2024-02-14T09:37:29;9.43;;;8.52;;
18720;SDS011;9489;50.948;3.114;2024-02-14T09:39:55;9.23;;;8.38;;
18720;SDS011;9489;50.948;3.114;2024-02-14T09:42:24;8.95;;;8.10;;
18720;SDS011;9489;50.948;3.114;2024-02-14T09:44:56;8.70;;;7.90;;
18720;SDS011;9489;50.948;3.114;2024-02-14T09:47:23;9.13;;;8.27;;
18720;SDS011;9489;50.948;3.114;2024-02-14T09:49:50;8.82;;;8.02;;
18720;SDS011;9489;50.948;3.114;2024-02-14T09:52:18;8.27;;;7.57;;
18720;SDS011;9489;50.948;3.114;2024-02-14T09:54:45;8.45;;;7.65;;
18720;SDS011;9489;50.948;3.114;2024-02-14T09:57:11;9.13;;;7.70;;
18720;SDS011;9489;50.948;3.114;2024-02-14T09:59:41;8.20;;;7.50;;
18720;SDS011;9489;50.948;3.114;2024-02-14T10:02:08;7.60;;;7.00;;
18720;SDS011;9489;50.948;3.114;2024-02-14T10:04:35;7.28;;;6.68;;
18720;SDS011;9489;50.948;3.114;2024-02-14T10:07:03;7.03;;;6.45;;
18720;SDS011;9489;50.948;3.114;2024-02-14T10:09:30;8.25;;;6.68;;
18720;SDS011;9489;50.948;3.114;2024-02-14T10:11:56;8.05;;;7.35;;
18720;SDS011;9489;50.948;3.114;2024-02-14T10:14:23;7.75;;;7.10;;
18720;SDS011;9489;50.948;3.114;2024-02-14T10:16:49;6.97;;;6.38;;
18720;SDS011;9489;50.948;3.114;2024-02-14T10:19:17;6.85;;;6.15;;
18720;SDS011;9489;50.948;3.114;2024-02-14T10:21:43;7.28;;;6.78;;
18720;SDS011;9489;50.948;3.114;2024-02-14T10:24:21;6.88;;;6.20;;
18720;SDS011;9489;50.948;3.114;2024-02-14T10:26:46;7.00;;;6.35;;
18720;SDS011;9489;50.948;3.114;2024-02-14T10:29:12;7.35;;;6.75;;
18720;SDS011;9489;50.948;3.114;2024-02-14T10:31:40;6.15;;;5.60;;
18720;SDS011;9489;50.948;3.114;2024-02-14T10:34:05;6.72;;;6.10;;
18720;SDS011;9489;50.948;3.114;2024-02-14T10:36:33;6.90;;;6.20;;
18720;SDS011;9489;50.948;3.114;2024-02-14T10:39:00;6.57;;;5.97;;
18720;SDS011;9489;50.948;3.114;2024-02-14T10:41:29;9.32;;;6.28;;
18720;SDS011;9489;50.948;3.114;2024-02-14T10:44:01;7.20;;;6.60;;
18720;SDS011;9489;50.948;3.114;2024-02-14T10:46:28;7.00;;;6.22;;
18720;SDS011;9489;50.948;3.114;2024-02-14T10:48:58;7.22;;;6.30;;
18720;SDS011;9489;50.948;3.114;2024-02-14T10:51:29;6.10;;;5.60;;
18720;SDS011;9489;50.948;3.114;2024-02-14T10:53:56;7.00;;;6.30;;
18720;SDS011;9489;50.948;3.114;2024-02-14T10:56:24;7.05;;;6.22;;
18720;SDS011;9489;50.948;3.114;2024-02-14T10:58:54;7.35;;;6.65;;
18720;SDS011;9489;50.948;3.114;2024-02-14T11:01:25;8.23;;;6.75;;
18720;SDS011;9489;50.948;3.114;2024-02-14T11:03:55;8.02;;;6.38;;
18720;SDS011;9489;50.948;3.114;2024-02-14T11:06:23;8.75;;;7.18;;
18720;SDS011;9489;50.948;3.114;2024-02-14T11:08:55;7.30;;;6.40;;
18720;SDS011;9489;50.948;3.114;2024-02-14T11:11:32;8.98;;;6.75;;
18720;SDS011;9489;50.948;3.114;2024-02-14T11:13:59;8.32;;;6.32;;
18720;SDS011;9489;50.948;3.114;2024-02-14T11:16:25;8.27;;;7.00;;
18720;SDS011;9489;50.948;3.114;2024-02-14T11:19:10;7.28;;;6.28;;
18720;SDS011;9489;50.948;3.114;2024-02-14T11:21:40;7.15;;;6.38;;
18720;SDS011;9489;50.948;3.114;2024-02-14T11:24:11;8.35;;;6.35;;
18720;SDS011;9489;50.948;3.114;2024-02-14T11:29:17;8.43;;;5.88;;
18720;SDS011;9489;50.948;3.114;2024-02-14T11:31:46;7.13;;;6.40;;
18720;SDS011;9489;50.948;3.114;2024-02-14T11:34:16;6.55;;;5.90;;
18720;SDS011;9489;50.948;3.114;2024-02-14T11:36:42;7.72;;;5.80;;
18720;SDS011;9489;50.948;3.114;2024-02-14T11:39:09;6.43;;;5.28;;
18720;SDS011;9489;50.948;3.114;2024-02-14T11:41:37;5.97;;;5.40;;
18720;SDS011;9489;50.948;3.114;2024-02-14T11:44:03;6.53;;;5.43;;
18720;SDS011;9489;50.948;3.114;2024-02-14T11:46:33;7.63;;;5.20;;
18720;SDS011;9489;50.948;3.114;2024-02-14T11:48:59;6.68;;;5.03;;
18720;SDS011;9489;50.948;3.114;2024-02-14T11:51:30;6.00;;;4.65;;
18720;SDS011;9489;50.948;3.114;2024-02-14T11:54:00;7.72;;;5.03;;
18720;SDS011;9489;50.948;3.114;2024-02-14T11:56:32;5.40;;;4.90;;
18720;SDS011;9489;50.948;3.114;2024-02-14T11:59:00;6.00;;;5.40;;
18720;SDS011;9489;50.948;3.114;2024-02-14T12:01:37;8.27;;;5.28;;
18720;SDS011;9489;50.948;3.114;2024-02-14T12:04:07;6.88;;;4.88;;
18720;SDS011;9489;50.948;3.114;2024-02-14T12:06:34;6.95;;;4.90;;
18720;SDS011;9489;50.948;3.114;2024-02-14T12:09:01;7.47;;;5.68;;
18720;SDS011;9489;50.948;3.114;2024-02-14T12:11:33;5.18;;;4.68;;
18720;SDS011;9489;50.948;3.114;2024-02-14T12:14:03;5.10;;;4.50;;
18720;SDS011;9489;50.948;3.114;2024-02-14T12:16:30;8.32;;;4.72;;
18720;SDS011;9489;50.948;3.114;2024-02-14T12:19:13;5.63;;;4.88;;
18720;SDS011;9489;50.948;3.114;2024-02-14T12:21:40;5.93;;;4.60;;
18720;SDS011;9489;50.948;3.114;2024-02-14T12:24:10;9.85;;;5.97;;
18720;SDS011;9489;50.948;3.114;2024-02-14T12:26:39;8.15;;;5.80;;
18720;SDS011;9489;50.948;3.114;2024-02-14T12:29:05;8.82;;;4.70;;
18720;SDS011;9489;50.948;3.114;2024-02-14T12:31:32;5.55;;;4.65;;
18720;SDS011;9489;50.948;3.114;2024-02-14T12:33:59;5.68;;;4.35;;
18720;SDS011;9489;50.948;3.114;2024-02-14T12:36:27;5.10;;;4.63;;
18720;SDS011;9489;50.948;3.114;2024-02-14T12:38:57;6.30;;;4.35;;
18720;SDS011;9489;50.948;3.114;2024-02-14T12:41:23;8.43;;;6.50;;
18720;SDS011;9489;50.948;3.114;2024-02-14T12:43:51;10.40;;;9.35;;
18720;SDS011;9489;50.948;3.114;2024-02-14T12:46:17;9.60;;;8.68;;
18720;SDS011;9489;50.948;3.114;2024-02-14T12:48:43;8.93;;;7.50;;
18720;SDS011;9489;50.948;3.114;2024-02-14T12:51:09;7.50;;;5.88;;
18720;SDS011;9489;50.948;3.114;2024-02-14T12:53:35;8.40;;;5.07;;
18720;SDS011;9489;50.948;3.114;2024-02-14T12:56:01;6.50;;;5.80;;
18720;SDS011;9489;50.948;3.114;2024-02-14T12:58:27;7.05;;;4.80;;
18720;SDS011;9489;50.948;3.114;2024-02-14T13:00:52;5.35;;;4.82;;
18720;SDS011;9489;50.948;3.114;2024-02-14T13:03:18;6.97;;;4.32;;
18720;SDS011;9489;50.948;3.114;2024-02-14T13:05:44;5.88;;;4.47;;
18720;SDS011;9489;50.948;3.114;2024-02-14T13:08:12;4.47;;;3.60;;
18720;SDS011;9489;50.948;3.114;2024-02-14T13:10:38;5.70;;;4.15;;
18720;SDS011;9489;50.948;3.114;2024-02-14T13:13:03;5.65;;;4.05;;
18720;SDS011;9489;50.948;3.114;2024-02-14T13:15:29;4.72;;;4.25;;
18720;SDS011;9489;50.948;3.114;2024-02-14T13:17:55;7.03;;;3.35;;
18720;SDS011;9489;50.948;3.114;2024-02-14T13:20:23;6.18;;;2.90;;
18720;SDS011;9489;50.948;3.114;2024-02-14T13:22:49;5.10;;;3.22;;
18720;SDS011;9489;50.948;3.114;2024-02-14T13:25:15;4.43;;;3.40;;
18720;SDS011;9489;50.948;3.114;2024-02-14T13:27:40;4.03;;;3.15;;
18720;SDS011;9489;50.948;3.114;2024-02-14T13:30:07;4.63;;;3.15;;
18720;SDS011;9489;50.948;3.114;2024-02-14T13:32:33;3.47;;;2.63;;
18720;SDS011;9489;50.948;3.114;2024-02-14T13:34:59;5.80;;;3.42;;
18720;SDS011;9489;50.948;3.114;2024-02-14T13:37:25;3.88;;;3.38;;
18720;SDS011;9489;50.948;3.114;2024-02-14T13:39:51;6.35;;;3.30;;
18720;SDS011;9489;50.948;3.114;2024-02-14T13:42:16;4.22;;;3.60;;
18720;SDS011;9489;50.948;3.114;2024-02-14T13:44:42;5.07;;;3.85;;
18720;SDS011;9489;50.948;3.114;2024-02-14T13:47:08;6.00;;;3.97;;
18720;SDS011;9489;50.948;3.114;2024-02-14T13:49:34;4.18;;;3.50;;
18720;SDS011;9489;50.948;3.114;2024-02-14T13:52:00;5.88;;;3.95;;
18720;SDS011;9489;50.948;3.114;2024-02-14T13:54:25;5.15;;;3.35;;
18720;SDS011;9489;50.948;3.114;2024-02-14T13:56:51;5.78;;;4.35;;
18720;SDS011;9489;50.948;3.114;2024-02-14T13:59:17;5.78;;;3.92;;
18720;SDS011;9489;50.948;3.114;2024-02-14T14:01:44;5.15;;;4.10;;
18720;SDS011;9489;50.948;3.114;2024-02-14T14:04:11;5.05;;;3.90;;
18720;SDS011;9489;50.948;3.114;2024-02-14T14:06:37;4.72;;;4.18;;
18720;SDS011;9489;50.948;3.114;2024-02-14T14:09:04;7.20;;;4.03;;
18720;SDS011;9489;50.948;3.114;2024-02-14T14:11:33;4.03;;;3.72;;
18720;SDS011;9489;50.948;3.114;2024-02-14T14:13:58;6.18;;;3.80;;
18720;SDS011;9489;50.948;3.114;2024-02-14T14:16:25;6.00;;;4.57;;
18720;SDS011;9489;50.948;3.114;2024-02-14T14:18:51;6.38;;;5.00;;
18720;SDS011;9489;50.948;3.114;2024-02-14T14:21:16;9.45;;;7.55;;
18720;SDS011;9489;50.948;3.114;2024-02-14T14:23:42;6.97;;;5.88;;
18720;SDS011;9489;50.948;3.114;2024-02-14T14:26:09;7.82;;;4.95;;
18720;SDS011;9489;50.948;3.114;2024-02-14T14:28:34;5.30;;;4.35;;
18720;SDS011;9489;50.948;3.114;2024-02-14T14:31:00;5.93;;;5.32;;
18720;SDS011;9489;50.948;3.114;2024-02-14T14:33:27;6.85;;;4.95;;
18720;SDS011;9489;50.948;3.114;2024-02-14T14:35:53;7.07;;;4.38;;
18720;SDS011;9489;50.948;3.114;2024-02-14T14:38:20;5.82;;;4.03;;
18720;SDS011;9489;50.948;3.114;2024-02-14T14:40:46;5.20;;;3.72;;
18720;SDS011;9489;50.948;3.114;2024-02-14T14:43:12;8.65;;;3.90;;
18720;SDS011;9489;50.948;3.114;2024-02-14T14:45:38;4.93;;;3.75;;
18720;SDS011;9489;50.948;3.114;2024-02-14T14:48:06;4.63;;;3.20;;
18720;SDS011;9489;50.948;3.114;2024-02-14T14:50:33;5.68;;;3.30;;
18720;SDS011;9489;50.948;3.114;2024-02-14T14:52:59;7.57;;;4.72;;
18720;SDS011;9489;50.948;3.114;2024-02-14T14:55:25;6.50;;;4.10;;
18720;SDS011;9489;50.948;3.114;2024-02-14T14:58:13;7.22;;;3.55;;